sensor_id;sensor_type;location;lat;lon;timestamp;P1;durP1;ratioP1;P2;durP2;ratioP2
18740;SDS011;9499;52.472;13.448;2023-06-04T00:00:38;1.93;;;1.57;;
18740;SDS011;9499;52.472;13.448;2023-06-04T00:03:04;1.90;;;1.40;;
18740;SDS011;9499;52.472;13.448;2023-06-04T00:05:31;3.33;;;3.03;;
18740;SDS011;9499;52.472;13.448;2023-06-04T00:07:58;1.60;;;1.07;;
18740;SDS011;9499;52.472;13.448;2023-06-04T00:10:24;3.10;;;1.80;;
18740;SDS011;9499;52.472;13.448;2023-06-04T00:12:51;2.40;;;1.90;;
18740;SDS011;9499;52.472;13.448;2023-06-04T00:15:17;2.80;;;1.20;;
18740;SDS011;9499;52.472;13.448;2023-06-04T00:17:45;1.80;;;1.13;;
18740;SDS011;9499;52.472;13.448;2023-06-04T00:20:11;1.50;;;0.90;;
18740;SDS011;9499;52.472;13.448;2023-06-04T00:22:38;2.03;;;1.30;;
18740;SDS011;9499;52.472;13.448;2023-06-04T00:25:06;1.60;;;0.93;;
18740;SDS011;9499;52.472;13.448;2023-06-04T00:27:33;1.40;;;0.90;;
18740;SDS011;9499;52.472;13.448;2023-06-04T00:30:00;1.90;;;1.30;;
18740;SDS011;9499;52.472;13.448;2023-06-04T00:32:26;1.50;;;0.80;;
18740;SDS011;9499;52.472;13.448;2023-06-04T00:34:54;1.60;;;1.50;;
18740;SDS011;9499;52.472;13.448;2023-06-04T00:37:23;1.43;;;1.30;;
18740;SDS011;9499;52.472;13.448;2023-06-04T00:39:49;2.50;;;1.53;;
18740;SDS011;9499;52.472;13.448;2023-06-04T00:42:16;2.47;;;1.50;;
18740;SDS011;9499;52.472;13.448;2023-06-04T00:44:43;2.67;;;1.53;;
18740;SDS011;9499;52.472;13.448;2023-06-04T00:47:11;1.60;;;1.00;;
18740;SDS011;9499;52.472;13.448;2023-06-04T00:49:37;1.53;;;0.97;;
18740;SDS011;9499;52.472;13.448;2023-06-04T00:52:06;1.37;;;0.90;;
18740;SDS011;9499;52.472;13.448;2023-06-04T00:54:33;2.10;;;1.27;;
18740;SDS011;9499;52.472;13.448;2023-06-04T00:57:01;1.30;;;0.80;;
18740;SDS011;9499;52.472;13.448;2023-06-04T00:59:27;1.63;;;1.17;;
18740;SDS011;9499;52.472;13.448;2023-06-04T01:01:56;1.97;;;1.20;;
18740;SDS011;9499;52.472;13.448;2023-06-04T01:04:27;1.50;;;0.90;;
18740;SDS011;9499;52.472;13.448;2023-06-04T01:06:58;1.30;;;0.87;;
18740;SDS011;9499;52.472;13.448;2023-06-04T01:09:29;2.03;;;1.00;;
18740;SDS011;9499;52.472;13.448;2023-06-04T01:11:57;1.30;;;0.93;;
18740;SDS011;9499;52.472;13.448;2023-06-04T01:14:27;1.50;;;0.90;;
18740;SDS011;9499;52.472;13.448;2023-06-04T01:16:55;1.27;;;0.80;;
18740;SDS011;9499;52.472;13.448;2023-06-04T01:19:45;1.40;;;0.90;;
18740;SDS011;9499;52.472;13.448;2023-06-04T01:22:32;2.03;;;1.07;;
18740;SDS011;9499;52.472;13.448;2023-06-04T01:25:04;1.97;;;1.23;;
18740;SDS011;9499;52.472;13.448;2023-06-04T01:27:34;1.47;;;1.00;;
18740;SDS011;9499;52.472;13.448;2023-06-04T01:30:02;3.40;;;1.77;;
18740;SDS011;9499;52.472;13.448;2023-06-04T01:32:29;1.50;;;0.97;;
18740;SDS011;9499;52.472;13.448;2023-06-04T01:34:56;1.40;;;1.07;;
18740;SDS011;9499;52.472;13.448;2023-06-04T01:37:23;2.37;;;1.20;;
18740;SDS011;9499;52.472;13.448;2023-06-04T01:39:51;1.70;;;1.30;;
18740;SDS011;9499;52.472;13.448;2023-06-04T01:42:19;2.87;;;1.30;;
18740;SDS011;9499;52.472;13.448;2023-06-04T01:44:45;1.30;;;0.90;;
18740;SDS011;9499;52.472;13.448;2023-06-04T01:47:12;1.37;;;0.93;;
18740;SDS011;9499;52.472;13.448;2023-06-04T01:49:38;1.50;;;0.90;;
18740;SDS011;9499;52.472;13.448;2023-06-04T01:52:05;1.57;;;1.07;;
18740;SDS011;9499;52.472;13.448;2023-06-04T01:54:32;1.50;;;1.17;;
18740;SDS011;9499;52.472;13.448;2023-06-04T01:56:59;1.80;;;1.30;;
18740;SDS011;9499;52.472;13.448;2023-06-04T01:59:27;1.93;;;1.30;;
18740;SDS011;9499;52.472;13.448;2023-06-04T02:01:53;1.50;;;1.10;;
18740;SDS011;9499;52.472;13.448;2023-06-04T02:04:20;2.33;;;1.80;;
18740;SDS011;9499;52.472;13.448;2023-06-04T02:06:47;1.60;;;0.93;;
18740;SDS011;9499;52.472;13.448;2023-06-04T02:09:14;3.20;;;1.33;;
18740;SDS011;9499;52.472;13.448;2023-06-04T02:11:41;1.40;;;1.10;;
18740;SDS011;9499;52.472;13.448;2023-06-04T02:14:07;1.40;;;1.00;;
18740;SDS011;9499;52.472;13.448;2023-06-04T02:16:35;1.40;;;1.00;;
18740;SDS011;9499;52.472;13.448;2023-06-04T02:19:02;1.37;;;0.97;;
18740;SDS011;9499;52.472;13.448;2023-06-04T02:21:29;1.50;;;1.20;;
18740;SDS011;9499;52.472;13.448;2023-06-04T02:23:56;1.93;;;1.10;;
18740;SDS011;9499;52.472;13.448;2023-06-04T02:26:22;1.83;;;1.30;;
18740;SDS011;9499;52.472;13.448;2023-06-04T02:28:50;1.50;;;1.20;;
18740;SDS011;9499;52.472;13.448;2023-06-04T02:31:16;1.40;;;1.10;;
18740;SDS011;9499;52.472;13.448;2023-06-04T02:33:44;2.13;;;1.47;;
18740;SDS011;9499;52.472;13.448;2023-06-04T02:36:10;2.67;;;1.47;;
18740;SDS011;9499;52.472;13.448;2023-06-04T02:38:37;1.50;;;1.23;;
18740;SDS011;9499;52.472;13.448;2023-06-04T02:41:03;1.67;;;1.40;;
18740;SDS011;9499;52.472;13.448;2023-06-04T02:43:30;1.60;;;0.90;;
18740;SDS011;9499;52.472;13.448;2023-06-04T02:45:56;1.90;;;1.40;;
18740;SDS011;9499;52.472;13.448;2023-06-04T02:48:23;2.53;;;1.60;;
18740;SDS011;9499;52.472;13.448;2023-06-04T02:50:51;1.60;;;1.20;;
18740;SDS011;9499;52.472;13.448;2023-06-04T02:53:17;1.60;;;1.20;;
18740;SDS011;9499;52.472;13.448;2023-06-04T02:55:44;1.47;;;1.20;;
18740;SDS011;9499;52.472;13.448;2023-06-04T02:58:10;1.50;;;1.17;;
18740;SDS011;9499;52.472;13.448;2023-06-04T03:00:39;1.30;;;1.00;;
18740;SDS011;9499;52.472;13.448;2023-06-04T03:03:05;1.40;;;1.03;;
18740;SDS011;9499;52.472;13.448;2023-06-04T03:05:32;1.60;;;1.40;;
18740;SDS011;9499;52.472;13.448;2023-06-04T03:08:00;2.33;;;1.40;;
18740;SDS011;9499;52.472;13.448;2023-06-04T03:10:27;1.93;;;1.20;;
18740;SDS011;9499;52.472;13.448;2023-06-04T03:12:53;1.53;;;1.27;;
18740;SDS011;9499;52.472;13.448;2023-06-04T03:15:20;2.53;;;1.30;;
18740;SDS011;9499;52.472;13.448;2023-06-04T03:17:47;1.40;;;1.03;;
18740;SDS011;9499;52.472;13.448;2023-06-04T03:20:13;1.87;;;1.27;;
18740;SDS011;9499;52.472;13.448;2023-06-04T03:22:40;2.33;;;1.50;;
18740;SDS011;9499;52.472;13.448;2023-06-04T03:25:08;1.60;;;1.07;;
18740;SDS011;9499;52.472;13.448;2023-06-04T03:27:35;1.83;;;1.43;;
18740;SDS011;9499;52.472;13.448;2023-06-04T03:30:02;2.37;;;1.30;;
18740;SDS011;9499;52.472;13.448;2023-06-04T03:32:29;2.43;;;1.63;;
18740;SDS011;9499;52.472;13.448;2023-06-04T03:34:56;2.67;;;1.37;;
18740;SDS011;9499;52.472;13.448;2023-06-04T03:37:22;1.50;;;0.97;;
18740;SDS011;9499;52.472;13.448;2023-06-04T03:39:49;1.80;;;1.30;;
18740;SDS011;9499;52.472;13.448;2023-06-04T03:42:16;1.80;;;1.47;;
18740;SDS011;9499;52.472;13.448;2023-06-04T03:44:43;1.30;;;0.90;;
18740;SDS011;9499;52.472;13.448;2023-06-04T03:47:11;1.60;;;1.23;;
18740;SDS011;9499;52.472;13.448;2023-06-04T03:49:37;2.43;;;1.20;;
18740;SDS011;9499;52.472;13.448;2023-06-04T03:52:04;1.80;;;1.60;;
18740;SDS011;9499;52.472;13.448;2023-06-04T03:54:30;1.60;;;1.20;;
18740;SDS011;9499;52.472;13.448;2023-06-04T03:56:57;1.50;;;1.20;;
18740;SDS011;9499;52.472;13.448;2023-06-04T03:59:25;2.47;;;1.27;;
18740;SDS011;9499;52.472;13.448;2023-06-04T04:01:51;1.50;;;1.00;;
18740;SDS011;9499;52.472;13.448;2023-06-04T04:04:17;1.60;;;1.20;;
18740;SDS011;9499;52.472;13.448;2023-06-04T04:06:44;1.40;;;1.20;;
18740;SDS011;9499;52.472;13.448;2023-06-04T04:09:10;1.93;;;1.50;;
18740;SDS011;9499;52.472;13.448;2023-06-04T04:11:37;1.70;;;1.40;;
18740;SDS011;9499;52.472;13.448;2023-06-04T04:14:03;1.60;;;1.20;;
18740;SDS011;9499;52.472;13.448;2023-06-04T04:16:31;1.60;;;1.30;;
18740;SDS011;9499;52.472;13.448;2023-06-04T04:18:58;1.60;;;1.10;;
18740;SDS011;9499;52.472;13.448;2023-06-04T04:21:24;1.40;;;1.00;;
18740;SDS011;9499;52.472;13.448;2023-06-04T04:23:51;1.60;;;1.30;;
18740;SDS011;9499;52.472;13.448;2023-06-04T04:26:18;1.83;;;1.40;;
18740;SDS011;9499;52.472;13.448;2023-06-04T04:28:44;1.47;;;1.17;;
18740;SDS011;9499;52.472;13.448;2023-06-04T04:31:11;2.97;;;1.47;;
18740;SDS011;9499;52.472;13.448;2023-06-04T04:33:39;1.40;;;1.00;;
18740;SDS011;9499;52.472;13.448;2023-06-04T04:36:05;1.67;;;1.00;;
18740;SDS011;9499;52.472;13.448;2023-06-04T04:38:37;1.90;;;1.30;;
18740;SDS011;9499;52.472;13.448;2023-06-04T04:41:04;1.20;;;0.90;;
18740;SDS011;9499;52.472;13.448;2023-06-04T04:43:33;1.70;;;1.30;;
18740;SDS011;9499;52.472;13.448;2023-06-04T04:46:00;2.57;;;1.70;;
18740;SDS011;9499;52.472;13.448;2023-06-04T04:48:27;1.40;;;1.10;;
18740;SDS011;9499;52.472;13.448;2023-06-04T04:50:54;3.00;;;1.40;;
18740;SDS011;9499;52.472;13.448;2023-06-04T04:53:21;2.00;;;1.63;;
18740;SDS011;9499;52.472;13.448;2023-06-04T04:55:48;1.73;;;1.63;;
18740;SDS011;9499;52.472;13.448;2023-06-04T04:58:15;2.30;;;1.70;;
18740;SDS011;9499;52.472;13.448;2023-06-04T05:00:43;1.50;;;1.30;;
18740;SDS011;9499;52.472;13.448;2023-06-04T05:03:10;1.70;;;1.37;;
18740;SDS011;9499;52.472;13.448;2023-06-04T05:05:37;2.00;;;1.20;;
18740;SDS011;9499;52.472;13.448;2023-06-04T05:08:05;1.40;;;1.20;;
18740;SDS011;9499;52.472;13.448;2023-06-04T05:10:31;1.50;;;1.07;;
18740;SDS011;9499;52.472;13.448;2023-06-04T05:13:00;1.40;;;1.17;;
18740;SDS011;9499;52.472;13.448;2023-06-04T05:15:27;1.93;;;1.37;;
18740;SDS011;9499;52.472;13.448;2023-06-04T05:17:54;1.63;;;1.40;;
18740;SDS011;9499;52.472;13.448;2023-06-04T05:20:21;1.30;;;0.97;;
18740;SDS011;9499;52.472;13.448;2023-06-04T05:22:48;1.23;;;0.90;;
18740;SDS011;9499;52.472;13.448;2023-06-04T05:25:16;2.37;;;1.33;;
18740;SDS011;9499;52.472;13.448;2023-06-04T05:27:43;2.10;;;1.87;;
18740;SDS011;9499;52.472;13.448;2023-06-04T05:30:10;1.70;;;1.30;;
18740;SDS011;9499;52.472;13.448;2023-06-04T05:32:38;2.43;;;1.50;;
18740;SDS011;9499;52.472;13.448;2023-06-04T05:35:06;1.50;;;1.10;;
18740;SDS011;9499;52.472;13.448;2023-06-04T05:37:34;1.60;;;1.33;;
18740;SDS011;9499;52.472;13.448;2023-06-04T05:40:00;2.57;;;1.30;;
18740;SDS011;9499;52.472;13.448;2023-06-04T05:42:31;1.77;;;1.00;;
18740;SDS011;9499;52.472;13.448;2023-06-04T05:44:58;1.70;;;1.10;;
18740;SDS011;9499;52.472;13.448;2023-06-04T05:47:24;1.60;;;1.20;;
18740;SDS011;9499;52.472;13.448;2023-06-04T05:49:51;2.60;;;1.10;;
18740;SDS011;9499;52.472;13.448;2023-06-04T05:52:17;1.50;;;1.10;;
18740;SDS011;9499;52.472;13.448;2023-06-04T05:54:44;1.40;;;1.30;;
18740;SDS011;9499;52.472;13.448;2023-06-04T05:57:10;1.70;;;1.40;;
18740;SDS011;9499;52.472;13.448;2023-06-04T05:59:38;2.00;;;1.27;;
18740;SDS011;9499;52.472;13.448;2023-06-04T06:02:04;1.30;;;1.10;;
18740;SDS011;9499;52.472;13.448;2023-06-04T06:04:32;2.80;;;1.20;;
18740;SDS011;9499;52.472;13.448;2023-06-04T06:06:58;1.70;;;1.43;;
18740;SDS011;9499;52.472;13.448;2023-06-04T06:09:25;2.10;;;1.43;;
18740;SDS011;9499;52.472;13.448;2023-06-04T06:11:52;1.50;;;1.10;;
18740;SDS011;9499;52.472;13.448;2023-06-04T06:14:19;1.80;;;1.37;;
18740;SDS011;9499;52.472;13.448;2023-06-04T06:16:47;1.80;;;1.27;;
18740;SDS011;9499;52.472;13.448;2023-06-04T06:19:13;1.63;;;1.17;;
18740;SDS011;9499;52.472;13.448;2023-06-04T06:21:39;1.60;;;1.23;;
18740;SDS011;9499;52.472;13.448;2023-06-04T06:24:06;2.17;;;1.10;;
18740;SDS011;9499;52.472;13.448;2023-06-04T06:26:32;2.33;;;0.90;;
18740;SDS011;9499;52.472;13.448;2023-06-04T06:28:59;2.70;;;2.13;;
18740;SDS011;9499;52.472;13.448;2023-06-04T06:31:25;1.57;;;1.10;;
18740;SDS011;9499;52.472;13.448;2023-06-04T06:33:54;3.00;;;1.40;;
18740;SDS011;9499;52.472;13.448;2023-06-04T06:36:20;1.93;;;1.00;;
18740;SDS011;9499;52.472;13.448;2023-06-04T06:38:47;1.80;;;1.20;;
18740;SDS011;9499;52.472;13.448;2023-06-04T06:41:13;1.67;;;1.20;;
18740;SDS011;9499;52.472;13.448;2023-06-04T06:43:40;1.60;;;1.43;;
18740;SDS011;9499;52.472;13.448;2023-06-04T06:46:06;2.13;;;0.83;;
18740;SDS011;9499;52.472;13.448;2023-06-04T06:48:33;1.30;;;0.90;;
18740;SDS011;9499;52.472;13.448;2023-06-04T06:51:01;1.30;;;0.90;;
18740;SDS011;9499;52.472;13.448;2023-06-04T06:53:27;1.27;;;0.70;;
18740;SDS011;9499;52.472;13.448;2023-06-04T06:55:54;1.30;;;0.80;;
18740;SDS011;9499;52.472;13.448;2023-06-04T06:58:21;1.50;;;0.93;;
18740;SDS011;9499;52.472;13.448;2023-06-04T07:00:48;1.87;;;1.37;;
18740;SDS011;9499;52.472;13.448;2023-06-04T07:03:14;1.80;;;1.13;;
18740;SDS011;9499;52.472;13.448;2023-06-04T07:05:41;2.33;;;0.90;;
18740;SDS011;9499;52.472;13.448;2023-06-04T07:08:09;1.30;;;0.90;;
18740;SDS011;9499;52.472;13.448;2023-06-04T07:10:35;1.93;;;0.70;;
18740;SDS011;9499;52.472;13.448;2023-06-04T07:13:02;1.20;;;0.70;;
18740;SDS011;9499;52.472;13.448;2023-06-04T07:15:28;1.60;;;1.00;;
18740;SDS011;9499;52.472;13.448;2023-06-04T07:17:55;2.27;;;1.00;;
18740;SDS011;9499;52.472;13.448;2023-06-04T07:20:22;1.47;;;0.80;;
18740;SDS011;9499;52.472;13.448;2023-06-04T07:22:48;1.90;;;1.00;;
18740;SDS011;9499;52.472;13.448;2023-06-04T07:25:16;1.20;;;0.80;;
18740;SDS011;9499;52.472;13.448;2023-06-04T07:27:42;1.40;;;0.93;;
18740;SDS011;9499;52.472;13.448;2023-06-04T07:30:10;1.47;;;0.80;;
18740;SDS011;9499;52.472;13.448;2023-06-04T07:32:36;1.90;;;1.10;;
18740;SDS011;9499;52.472;13.448;2023-06-04T07:35:03;1.30;;;0.70;;
18740;SDS011;9499;52.472;13.448;2023-06-04T07:37:30;1.30;;;0.90;;
18740;SDS011;9499;52.472;13.448;2023-06-04T07:39:56;2.13;;;0.80;;
18740;SDS011;9499;52.472;13.448;2023-06-04T07:42:24;1.47;;;1.07;;
18740;SDS011;9499;52.472;13.448;2023-06-04T07:44:50;1.20;;;0.63;;
18740;SDS011;9499;52.472;13.448;2023-06-04T07:47:17;1.40;;;0.70;;
18740;SDS011;9499;52.472;13.448;2023-06-04T07:49:43;1.20;;;0.60;;
18740;SDS011;9499;52.472;13.448;2023-06-04T07:52:10;1.30;;;0.67;;
18740;SDS011;9499;52.472;13.448;2023-06-04T07:54:36;1.17;;;0.60;;
18740;SDS011;9499;52.472;13.448;2023-06-04T07:57:06;1.70;;;0.70;;
18740;SDS011;9499;52.472;13.448;2023-06-04T07:59:34;1.40;;;0.77;;
18740;SDS011;9499;52.472;13.448;2023-06-04T08:02:01;1.10;;;0.60;;
18740;SDS011;9499;52.472;13.448;2023-06-04T08:04:27;1.37;;;0.77;;
18740;SDS011;9499;52.472;13.448;2023-06-04T08:06:54;1.30;;;0.60;;
18740;SDS011;9499;52.472;13.448;2023-06-04T08:09:21;1.20;;;0.70;;
18740;SDS011;9499;52.472;13.448;2023-06-04T08:11:48;1.10;;;0.50;;
18740;SDS011;9499;52.472;13.448;2023-06-04T08:14:15;1.30;;;0.80;;
18740;SDS011;9499;52.472;13.448;2023-06-04T08:16:43;1.10;;;0.60;;
18740;SDS011;9499;52.472;13.448;2023-06-04T08:19:09;1.50;;;0.80;;
18740;SDS011;9499;52.472;13.448;2023-06-04T08:21:36;1.20;;;0.60;;
18740;SDS011;9499;52.472;13.448;2023-06-04T08:24:02;1.27;;;0.60;;
18740;SDS011;9499;52.472;13.448;2023-06-04T08:26:29;1.30;;;0.70;;
18740;SDS011;9499;52.472;13.448;2023-06-04T08:28:56;1.40;;;0.70;;
18740;SDS011;9499;52.472;13.448;2023-06-04T08:31:22;1.63;;;0.80;;
18740;SDS011;9499;52.472;13.448;2023-06-04T08:33:50;1.30;;;0.70;;
18740;SDS011;9499;52.472;13.448;2023-06-04T08:36:16;1.20;;;0.60;;
18740;SDS011;9499;52.472;13.448;2023-06-04T08:38:43;3.20;;;0.70;;
18740;SDS011;9499;52.472;13.448;2023-06-04T08:41:12;1.37;;;0.70;;
18740;SDS011;9499;52.472;13.448;2023-06-04T08:43:41;1.50;;;0.50;;
18740;SDS011;9499;52.472;13.448;2023-06-04T08:46:09;1.30;;;0.60;;
18740;SDS011;9499;52.472;13.448;2023-06-04T08:48:36;1.10;;;0.40;;
18740;SDS011;9499;52.472;13.448;2023-06-04T08:51:06;1.30;;;0.50;;
18740;SDS011;9499;52.472;13.448;2023-06-04T08:53:34;1.50;;;0.70;;
18740;SDS011;9499;52.472;13.448;2023-06-04T08:56:01;1.20;;;0.50;;
18740;SDS011;9499;52.472;13.448;2023-06-04T08:58:29;1.20;;;0.60;;
18740;SDS011;9499;52.472;13.448;2023-06-04T09:00:58;1.20;;;0.60;;
18740;SDS011;9499;52.472;13.448;2023-06-04T09:03:26;1.50;;;0.80;;
18740;SDS011;9499;52.472;13.448;2023-06-04T09:05:54;1.20;;;0.50;;
18740;SDS011;9499;52.472;13.448;2023-06-04T09:08:23;1.47;;;0.60;;
18740;SDS011;9499;52.472;13.448;2023-06-04T09:10:50;1.63;;;0.60;;
18740;SDS011;9499;52.472;13.448;2023-06-04T09:13:21;1.20;;;0.50;;
18740;SDS011;9499;52.472;13.448;2023-06-04T09:15:57;3.20;;;0.60;;
18740;SDS011;9499;52.472;13.448;2023-06-04T09:18:24;5.43;;;0.57;;
18740;SDS011;9499;52.472;13.448;2023-06-04T09:20:59;1.27;;;0.60;;
18740;SDS011;9499;52.472;13.448;2023-06-04T09:23:28;1.20;;;0.57;;
18740;SDS011;9499;52.472;13.448;2023-06-04T09:25:55;1.10;;;0.50;;
18740;SDS011;9499;52.472;13.448;2023-06-04T09:28:21;1.30;;;0.50;;
18740;SDS011;9499;52.472;13.448;2023-06-04T09:30:51;2.37;;;0.60;;
18740;SDS011;9499;52.472;13.448;2023-06-04T09:33:18;1.30;;;0.60;;
18740;SDS011;9499;52.472;13.448;2023-06-04T09:35:52;1.63;;;0.60;;
18740;SDS011;9499;52.472;13.448;2023-06-04T09:38:20;2.17;;;0.60;;
18740;SDS011;9499;52.472;13.448;2023-06-04T09:40:48;1.43;;;0.73;;
18740;SDS011;9499;52.472;13.448;2023-06-04T09:43:21;1.53;;;0.67;;
18740;SDS011;9499;52.472;13.448;2023-06-04T09:45:48;1.37;;;0.53;;
18740;SDS011;9499;52.472;13.448;2023-06-04T09:48:18;1.30;;;0.53;;
18740;SDS011;9499;52.472;13.448;2023-06-04T09:50:46;1.30;;;0.60;;
18740;SDS011;9499;52.472;13.448;2023-06-04T09:53:13;1.40;;;0.60;;
18740;SDS011;9499;52.472;13.448;2023-06-04T09:55:40;1.10;;;0.43;;
18740;SDS011;9499;52.472;13.448;2023-06-04T09:58:08;1.20;;;0.60;;
18740;SDS011;9499;52.472;13.448;2023-06-04T10:00:36;1.40;;;0.40;;
18740;SDS011;9499;52.472;13.448;2023-06-04T10:03:03;1.50;;;0.77;;
18740;SDS011;9499;52.472;13.448;2023-06-04T10:05:31;1.30;;;0.67;;
18740;SDS011;9499;52.472;13.448;2023-06-04T10:07:58;1.30;;;0.60;;
18740;SDS011;9499;52.472;13.448;2023-06-04T10:10:29;1.20;;;0.53;;
18740;SDS011;9499;52.472;13.448;2023-06-04T10:13:00;1.30;;;0.70;;
18740;SDS011;9499;52.472;13.448;2023-06-04T10:15:31;1.57;;;0.90;;
18740;SDS011;9499;52.472;13.448;2023-06-04T10:17:59;1.20;;;0.40;;
18740;SDS011;9499;52.472;13.448;2023-06-04T10:20:27;1.50;;;0.80;;
18740;SDS011;9499;52.472;13.448;2023-06-04T10:22:54;1.10;;;0.40;;
18740;SDS011;9499;52.472;13.448;2023-06-04T10:25:21;1.20;;;0.40;;
18740;SDS011;9499;52.472;13.448;2023-06-04T10:27:48;1.10;;;0.40;;
18740;SDS011;9499;52.472;13.448;2023-06-04T10:30:16;1.20;;;0.40;;
18740;SDS011;9499;52.472;13.448;2023-06-04T10:32:44;1.43;;;0.70;;
18740;SDS011;9499;52.472;13.448;2023-06-04T10:35:12;1.10;;;0.40;;
18740;SDS011;9499;52.472;13.448;2023-06-04T10:37:39;1.43;;;0.50;;
18740;SDS011;9499;52.472;13.448;2023-06-04T10:40:06;1.53;;;1.00;;
18740;SDS011;9499;52.472;13.448;2023-06-04T10:42:37;1.30;;;0.50;;
18740;SDS011;9499;52.472;13.448;2023-06-04T10:45:05;1.20;;;0.47;;
18740;SDS011;9499;52.472;13.448;2023-06-04T10:47:34;1.70;;;0.80;;
18740;SDS011;9499;52.472;13.448;2023-06-04T10:50:09;1.20;;;0.50;;
18740;SDS011;9499;52.472;13.448;2023-06-04T10:52:36;1.20;;;0.30;;
18740;SDS011;9499;52.472;13.448;2023-06-04T10:55:05;1.40;;;0.60;;
18740;SDS011;9499;52.472;13.448;2023-06-04T10:57:33;1.20;;;0.50;;
18740;SDS011;9499;52.472;13.448;2023-06-04T11:00:00;1.70;;;0.70;;
18740;SDS011;9499;52.472;13.448;2023-06-04T11:02:29;1.20;;;0.50;;
18740;SDS011;9499;52.472;13.448;2023-06-04T11:04:59;1.30;;;0.40;;
18740;SDS011;9499;52.472;13.448;2023-06-04T11:07:41;1.20;;;0.50;;
18740;SDS011;9499;52.472;13.448;2023-06-04T11:10:10;1.20;;;0.50;;
18740;SDS011;9499;52.472;13.448;2023-06-04T11:12:43;1.53;;;0.50;;
18740;SDS011;9499;52.472;13.448;2023-06-04T11:15:10;1.40;;;0.43;;
18740;SDS011;9499;52.472;13.448;2023-06-04T11:17:37;1.40;;;0.63;;
18740;SDS011;9499;52.472;13.448;2023-06-04T11:20:03;1.20;;;0.40;;
18740;SDS011;9499;52.472;13.448;2023-06-04T11:22:42;1.10;;;0.40;;
18740;SDS011;9499;52.472;13.448;2023-06-04T11:25:15;2.30;;;0.70;;
18740;SDS011;9499;52.472;13.448;2023-06-04T11:27:42;1.10;;;0.30;;
18740;SDS011;9499;52.472;13.448;2023-06-04T11:30:09;1.50;;;0.57;;
18740;SDS011;9499;52.472;13.448;2023-06-04T11:32:38;1.40;;;0.30;;
18740;SDS011;9499;52.472;13.448;2023-06-04T11:35:04;1.13;;;0.30;;
18740;SDS011;9499;52.472;13.448;2023-06-04T11:37:32;1.53;;;0.50;;
18740;SDS011;9499;52.472;13.448;2023-06-04T11:40:00;1.10;;;0.30;;
18740;SDS011;9499;52.472;13.448;2023-06-04T11:42:27;1.47;;;0.37;;
18740;SDS011;9499;52.472;13.448;2023-06-04T11:44:55;1.10;;;0.30;;
18740;SDS011;9499;52.472;13.448;2023-06-04T11:47:22;1.40;;;0.60;;
18740;SDS011;9499;52.472;13.448;2023-06-04T11:49:53;1.73;;;0.50;;
18740;SDS011;9499;52.472;13.448;2023-06-04T11:55:03;1.10;;;0.37;;
18740;SDS011;9499;52.472;13.448;2023-06-04T11:57:30;1.10;;;0.30;;
18740;SDS011;9499;52.472;13.448;2023-06-04T11:59:57;1.20;;;0.43;;
18740;SDS011;9499;52.472;13.448;2023-06-04T12:02:24;1.20;;;0.40;;
18740;SDS011;9499;52.472;13.448;2023-06-04T12:04:50;1.37;;;0.40;;
18740;SDS011;9499;52.472;13.448;2023-06-04T12:07:19;1.20;;;0.43;;
18740;SDS011;9499;52.472;13.448;2023-06-04T12:09:48;1.30;;;0.40;;
18740;SDS011;9499;52.472;13.448;2023-06-04T12:12:21;1.30;;;0.30;;
18740;SDS011;9499;52.472;13.448;2023-06-04T12:14:55;1.10;;;0.30;;
18740;SDS011;9499;52.472;13.448;2023-06-04T12:17:22;1.77;;;0.40;;
18740;SDS011;9499;52.472;13.448;2023-06-04T12:19:50;1.10;;;0.30;;
18740;SDS011;9499;52.472;13.448;2023-06-04T12:22:17;2.33;;;0.70;;
18740;SDS011;9499;52.472;13.448;2023-06-04T12:24:48;1.30;;;0.60;;
18740;SDS011;9499;52.472;13.448;2023-06-04T12:27:19;1.47;;;0.40;;
18740;SDS011;9499;52.472;13.448;2023-06-04T12:29:54;1.47;;;0.40;;
18740;SDS011;9499;52.472;13.448;2023-06-04T12:32:21;1.27;;;0.50;;
18740;SDS011;9499;52.472;13.448;2023-06-04T12:34:47;1.10;;;0.30;;
18740;SDS011;9499;52.472;13.448;2023-06-04T12:37:14;1.33;;;0.37;;
18740;SDS011;9499;52.472;13.448;2023-06-04T12:39:41;1.30;;;0.50;;
18740;SDS011;9499;52.472;13.448;2023-06-04T12:42:08;1.20;;;0.40;;
18740;SDS011;9499;52.472;13.448;2023-06-04T12:44:37;1.23;;;0.40;;
18740;SDS011;9499;52.472;13.448;2023-06-04T12:47:04;1.50;;;0.60;;
18740;SDS011;9499;52.472;13.448;2023-06-04T12:49:31;1.10;;;0.30;;
18740;SDS011;9499;52.472;13.448;2023-06-04T12:51:57;1.10;;;0.30;;
18740;SDS011;9499;52.472;13.448;2023-06-04T12:54:24;1.37;;;0.40;;
18740;SDS011;9499;52.472;13.448;2023-06-04T12:56:51;1.40;;;0.50;;
18740;SDS011;9499;52.472;13.448;2023-06-04T12:59:18;1.20;;;0.40;;
18740;SDS011;9499;52.472;13.448;2023-06-04T13:01:46;1.10;;;0.40;;
18740;SDS011;9499;52.472;13.448;2023-06-04T13:04:13;1.10;;;0.30;;
18740;SDS011;9499;52.472;13.448;2023-06-04T13:06:40;1.50;;;0.77;;
18740;SDS011;9499;52.472;13.448;2023-06-04T13:09:07;1.20;;;0.30;;
18740;SDS011;9499;52.472;13.448;2023-06-04T13:11:35;1.30;;;0.50;;
18740;SDS011;9499;52.472;13.448;2023-06-04T13:14:03;1.13;;;0.40;;
18740;SDS011;9499;52.472;13.448;2023-06-04T13:16:30;1.20;;;0.50;;
18740;SDS011;9499;52.472;13.448;2023-06-04T13:18:58;1.30;;;0.40;;
18740;SDS011;9499;52.472;13.448;2023-06-04T13:21:24;2.03;;;0.40;;
18740;SDS011;9499;52.472;13.448;2023-06-04T13:23:51;1.10;;;0.30;;
18740;SDS011;9499;52.472;13.448;2023-06-04T13:26:18;1.30;;;0.50;;
18740;SDS011;9499;52.472;13.448;2023-06-04T13:28:45;1.83;;;0.67;;
18740;SDS011;9499;52.472;13.448;2023-06-04T13:31:12;1.40;;;0.40;;
18740;SDS011;9499;52.472;13.448;2023-06-04T13:33:39;1.33;;;0.40;;
18740;SDS011;9499;52.472;13.448;2023-06-04T13:36:07;4.17;;;0.40;;
18740;SDS011;9499;52.472;13.448;2023-06-04T13:38:34;1.50;;;0.40;;
18740;SDS011;9499;52.472;13.448;2023-06-04T13:41:01;1.53;;;0.50;;
18740;SDS011;9499;52.472;13.448;2023-06-04T13:43:27;1.50;;;0.40;;
18740;SDS011;9499;52.472;13.448;2023-06-04T13:45:54;2.13;;;0.40;;
18740;SDS011;9499;52.472;13.448;2023-06-04T13:48:20;1.50;;;0.50;;
18740;SDS011;9499;52.472;13.448;2023-06-04T13:50:47;1.40;;;0.50;;
18740;SDS011;9499;52.472;13.448;2023-06-04T13:53:15;1.37;;;0.50;;
18740;SDS011;9499;52.472;13.448;2023-06-04T13:55:41;1.20;;;0.40;;
18740;SDS011;9499;52.472;13.448;2023-06-04T13:58:08;2.27;;;0.70;;
18740;SDS011;9499;52.472;13.448;2023-06-04T14:00:34;2.10;;;0.50;;
18740;SDS011;9499;52.472;13.448;2023-06-04T14:03:01;2.30;;;0.67;;
18740;SDS011;9499;52.472;13.448;2023-06-04T14:05:27;1.60;;;0.50;;
18740;SDS011;9499;52.472;13.448;2023-06-04T14:07:53;1.30;;;0.40;;
18740;SDS011;9499;52.472;13.448;2023-06-04T14:10:21;1.20;;;0.33;;
18740;SDS011;9499;52.472;13.448;2023-06-04T14:12:48;1.40;;;0.30;;
18740;SDS011;9499;52.472;13.448;2023-06-04T14:15:15;1.63;;;0.70;;
18740;SDS011;9499;52.472;13.448;2023-06-04T14:17:42;1.63;;;0.60;;
18740;SDS011;9499;52.472;13.448;2023-06-04T14:20:08;1.20;;;0.40;;
18740;SDS011;9499;52.472;13.448;2023-06-04T14:22:36;2.90;;;0.73;;
18740;SDS011;9499;52.472;13.448;2023-06-04T14:25:03;1.20;;;0.40;;
18740;SDS011;9499;52.472;13.448;2023-06-04T14:27:32;1.30;;;0.60;;
18740;SDS011;9499;52.472;13.448;2023-06-04T14:29:59;1.30;;;0.40;;
18740;SDS011;9499;52.472;13.448;2023-06-04T14:32:26;1.30;;;0.40;;
18740;SDS011;9499;52.472;13.448;2023-06-04T14:34:53;1.20;;;0.40;;
18740;SDS011;9499;52.472;13.448;2023-06-04T14:37:20;1.37;;;0.40;;
18740;SDS011;9499;52.472;13.448;2023-06-04T14:39:46;1.40;;;0.60;;
18740;SDS011;9499;52.472;13.448;2023-06-04T14:42:13;1.10;;;0.30;;
18740;SDS011;9499;52.472;13.448;2023-06-04T14:44:41;1.20;;;0.40;;
18740;SDS011;9499;52.472;13.448;2023-06-04T14:47:08;1.40;;;0.50;;
18740;SDS011;9499;52.472;13.448;2023-06-04T14:49:34;1.40;;;0.43;;
18740;SDS011;9499;52.472;13.448;2023-06-04T14:52:02;1.20;;;0.40;;